createdAt,value
2022-08-03T00:00:10.088Z,93.02
2022-08-03T00:01:10.063Z,93.23
2022-08-03T00:02:10.133Z,93.33
2022-08-03T00:03:10.060Z,93.43
2022-08-03T00:04:10.020Z,93.53
2022-08-03T00:05:10.012Z,93.63
2022-08-03T00:06:10.000Z,93.63
2022-08-03T00:07:09.992Z,93.53
2022-08-03T00:08:09.970Z,93.33
2022-08-03T00:09:09.967Z,93.63
2022-08-03T00:10:09.952Z,93.33
2022-08-03T00:11:09.944Z,93.13
2022-08-03T00:12:14.136Z,93.33
2022-08-03T00:13:09.942Z,93.23
2022-08-03T00:14:09.926Z,93.33
2022-08-03T00:15:11.385Z,93.13
2022-08-03T00:16:09.886Z,93.23
2022-08-03T00:17:09.884Z,93.02
2022-08-03T00:18:09.900Z,93.17
2022-08-03T00:19:09.855Z,93.27
2022-08-03T00:20:09.855Z,93.48
2022-08-03T00:21:09.847Z,93.37
2022-08-03T00:22:09.872Z,93.27
2022-08-03T00:23:09.827Z,92.77
2022-08-03T00:24:09.845Z,92.97
2022-08-03T00:25:09.806Z,92.86
2022-08-03T00:26:09.797Z,93.17
2022-08-03T00:27:16.574Z,93.27
2022-08-03T00:28:09.782Z,93.37
2022-08-03T00:29:09.766Z,93.37
2022-08-03T00:30:09.749Z,93.68
2022-08-03T00:31:09.740Z,93.72
2022-08-03T00:32:09.730Z,93.52
2022-08-03T00:33:09.728Z,94.02
2022-08-03T00:34:09.727Z,94.02
2022-08-03T00:35:11.384Z,93.92
2022-08-03T00:36:10.679Z,94.32
2022-08-03T00:37:09.681Z,93.92
2022-08-03T00:38:09.663Z,93.92
2022-08-03T00:39:09.652Z,93.62
2022-08-03T00:40:09.639Z,93.62
2022-08-03T00:41:09.629Z,93.52
2022-08-03T00:42:12.622Z,93.92
2022-08-03T00:43:09.642Z,93.82
2022-08-03T00:44:09.604Z,93.52
2022-08-03T00:45:09.636Z,93.41
2022-08-03T00:46:09.581Z,93.21
2022-08-03T00:47:10.565Z,93.62
2022-08-03T00:48:29.378Z,93.62
2022-08-03T00:49:10.580Z,93.41
2022-08-03T00:50:09.536Z,93.52
2022-08-03T00:51:09.527Z,93.72
2022-08-03T00:52:09.793Z,93.21
2022-08-03T00:53:09.552Z,93.62
2022-08-03T00:54:09.500Z,93.41
2022-08-03T00:55:09.490Z,93.72
2022-08-03T00:56:09.498Z,93.82
2022-08-03T00:57:12.465Z,93.72
2022-08-03T00:58:09.477Z,94.02
2022-08-03T00:59:09.479Z,94.32
2022-08-03T01:00:11.389Z,94.12
2022-08-03T01:01:09.480Z,94.27
2022-08-03T01:02:09.523Z,93.87
2022-08-03T01:03:09.397Z,93.76
2022-08-03T01:04:09.399Z,93.96
2022-08-03T01:05:09.377Z,94.17
2022-08-03T01:06:09.372Z,94.32
2022-08-03T01:07:11.117Z,94.23
2022-08-03T01:08:09.343Z,93.96
2022-08-03T01:09:09.384Z,94.07
2022-08-03T01:10:09.321Z,93.76
2022-08-03T01:11:09.322Z,93.76
2022-08-03T01:12:12.313Z,93.87
2022-08-03T01:13:59.801Z,94.17
2022-08-03T01:14:18.864Z,93.96
2022-08-03T01:15:09.285Z,93.66
2022-08-03T01:16:09.263Z,93.56
2022-08-03T01:17:09.259Z,93.66
2022-08-03T01:18:09.247Z,94.07
2022-08-03T01:19:09.235Z,93.96
2022-08-03T01:20:09.224Z,94.27
2022-08-03T01:21:09.205Z,94.47
2022-08-03T01:22:09.265Z,94.37
2022-08-03T01:23:09.187Z,94.47
2022-08-03T01:24:09.179Z,94.37
2022-08-03T01:25:09.185Z,94.37
2022-08-03T01:26:09.176Z,94.17
2022-08-03T01:27:12.150Z,94.07
2022-08-03T01:28:09.173Z,94.17
2022-08-03T01:29:12.996Z,94.27
2022-08-03T01:30:09.122Z,93.96
2022-08-03T01:31:09.129Z,94.21
2022-08-03T01:32:58.411Z,94.72
2022-08-03T01:33:10.705Z,94.72
2022-08-03T01:34:14.622Z,94.72
2022-08-03T01:35:09.059Z,94.62
2022-08-03T01:36:09.059Z,94.72
2022-08-03T01:37:09.048Z,94.62
2022-08-03T01:38:09.051Z,94.51
2022-08-03T01:39:09.020Z,94.72
2022-08-03T01:40:09.006Z,94.72
2022-08-03T01:41:09.002Z,94.82
2022-08-03T01:42:12.002Z,94.92
2022-08-03T01:43:08.994Z,94.82
2022-08-03T01:44:29.321Z,94.82
2022-08-03T01:45:09.952Z,94.82
2022-08-03T01:46:08.954Z,94.72
2022-08-03T01:47:08.944Z,94.92
2022-08-03T01:48:08.926Z,95.02
2022-08-03T01:49:09.637Z,95.02
2022-08-03T01:50:08.905Z,95.17
2022-08-03T01:51:08.901Z,95.67
2022-08-03T01:52:08.884Z,95.98
2022-08-03T01:53:08.878Z,95.57
2022-08-03T01:54:08.889Z,95.67
2022-08-03T01:55:08.854Z,95.78
2022-08-03T01:56:08.850Z,95.57
2022-08-03T01:57:11.836Z,95.37
2022-08-03T01:58:08.838Z,95.27
2022-08-03T01:59:08.835Z,95.17
2022-08-03T02:00:08.798Z,95.07
2022-08-03T02:01:08.820Z,95.07
2022-08-03T02:02:32.041Z,94.96
2022-08-03T02:03:09.779Z,94.86
2022-08-03T02:04:08.761Z,94.76
2022-08-03T02:05:10.735Z,94.96
2022-08-03T02:07:01.157Z,95.17
2022-08-03T02:07:09.726Z,95.17
2022-08-03T02:08:08.710Z,95.47
2022-08-03T02:09:08.712Z,95.37
2022-08-03T02:10:08.698Z,95.57
2022-08-03T02:11:08.692Z,95.47
2022-08-03T02:12:11.685Z,95.47
2022-08-03T02:13:08.697Z,95.47
2022-08-03T02:14:08.652Z,95.47
2022-08-03T02:15:08.651Z,95.47
2022-08-03T02:16:08.642Z,95.37
2022-08-03T02:17:08.644Z,95.27
2022-08-03T02:18:08.625Z,95.27
2022-08-03T02:19:08.621Z,95.37
2022-08-03T02:20:08.596Z,95.27
2022-08-03T02:21:11.194Z,95.17
2022-08-03T02:22:09.593Z,95.17
2022-08-03T02:23:08.561Z,95.27
2022-08-03T02:24:08.553Z,95.21
2022-08-03T02:25:08.538Z,95.31
2022-08-03T02:26:08.531Z,95.57
2022-08-03T02:27:11.531Z,95.51
2022-08-03T02:28:08.527Z,95.51
2022-08-03T02:29:08.495Z,95.11
2022-08-03T02:30:08.506Z,95.42
2022-08-03T02:31:08.481Z,95.42
2022-08-03T02:32:08.466Z,95.42
2022-08-03T02:33:08.459Z,95.42
2022-08-03T02:34:08.456Z,95.31
2022-08-03T02:35:08.455Z,95.21
2022-08-03T02:36:08.429Z,95.11
2022-08-03T02:37:08.410Z,95.21
2022-08-03T02:38:08.451Z,95.42
2022-08-03T02:39:08.402Z,95.31
2022-08-03T02:40:08.380Z,95.11
2022-08-03T02:41:08.376Z,95.11
2022-08-03T02:42:13.475Z,95.51
2022-08-03T02:43:08.377Z,95.11
2022-08-03T02:44:08.341Z,95.51
2022-08-03T02:45:08.331Z,95.51
2022-08-03T02:46:08.330Z,95.62
2022-08-03T02:47:08.310Z,95.72
2022-08-03T02:48:08.311Z,95.82
2022-08-03T02:49:41.373Z,95.97
2022-08-03T02:50:09.328Z,96.27
2022-08-03T02:51:08.275Z,96.17
2022-08-03T02:52:08.262Z,96.17
2022-08-03T02:53:08.247Z,96.17
2022-08-03T02:54:08.248Z,96.27
2022-08-03T02:55:08.231Z,96.27
2022-08-03T02:56:08.216Z,96.27
2022-08-03T02:57:11.197Z,96.27
2022-08-03T02:58:08.208Z,96.27
2022-08-03T02:59:08.182Z,96.27
2022-08-03T03:00:08.276Z,96.17
2022-08-03T03:01:08.312Z,96.07
2022-08-03T03:02:08.156Z,95.97
2022-08-03T03:03:08.166Z,95.76
2022-08-03T03:04:08.137Z,95.76
2022-08-03T03:05:54.712Z,95.66
2022-08-03T03:06:09.117Z,95.76
2022-08-03T03:07:08.106Z,95.97
2022-08-03T03:08:17.615Z,96.17
2022-08-03T03:09:08.079Z,96.07
2022-08-03T03:10:08.117Z,96.07
2022-08-03T03:11:08.059Z,95.97
2022-08-03T03:12:11.051Z,95.66
2022-08-03T03:13:08.070Z,95.76
2022-08-03T03:14:08.673Z,95.76
2022-08-03T03:15:08.039Z,95.56
2022-08-03T03:16:08.001Z,95.46
2022-08-03T03:17:07.991Z,95.56
2022-08-03T03:18:08.096Z,95.56
2022-08-03T03:19:07.972Z,95.86
2022-08-03T03:20:07.963Z,96.07
2022-08-03T03:21:07.951Z,96.17
2022-08-03T03:22:07.946Z,96.27
2022-08-03T03:23:07.954Z,95.97
2022-08-03T03:24:07.912Z,96.31
2022-08-03T03:25:07.914Z,96.01
2022-08-03T03:26:07.893Z,96.31
2022-08-03T03:27:10.886Z,96.42
2022-08-03T03:28:07.897Z,96.42
2022-08-03T03:29:07.825Z,96.11
2022-08-03T03:30:07.801Z,96.22
2022-08-03T03:31:07.792Z,96.31
2022-08-03T03:32:08.402Z,96.31
2022-08-03T03:33:07.851Z,96.31
2022-08-03T03:34:07.764Z,96.31
2022-08-03T03:35:07.746Z,96.42
2022-08-03T03:36:07.740Z,96.31
2022-08-03T03:37:07.724Z,96.31
2022-08-03T03:38:07.738Z,96.42
2022-08-03T03:39:15.408Z,96.22
2022-08-03T03:40:07.728Z,96.01
2022-08-03T03:41:07.689Z,96.11
2022-08-03T03:42:10.675Z,96.42
2022-08-03T03:43:07.679Z,96.82
2022-08-03T03:44:07.653Z,96.82
2022-08-03T03:45:07.650Z,96.92
2022-08-03T03:46:07.626Z,96.62
2022-08-03T03:47:07.619Z,97.23
2022-08-03T03:48:07.626Z,97.13
2022-08-03T03:49:07.680Z,96.82
2022-08-03T03:50:07.588Z,96.77
2022-08-03T03:51:07.604Z,96.66
2022-08-03T03:52:07.560Z,96.42
2022-08-03T03:53:09.279Z,96.72
2022-08-03T03:54:07.553Z,96.77
2022-08-03T03:55:07.552Z,96.66
2022-08-03T03:56:07.522Z,96.87
2022-08-03T03:57:12.945Z,97.07
2022-08-03T03:58:07.521Z,97.38
2022-08-03T03:59:07.492Z,96.87
2022-08-03T04:00:07.509Z,97.07
2022-08-03T04:01:07.516Z,96.97
2022-08-03T04:02:07.465Z,97.07
2022-08-03T04:03:07.449Z,97.17
2022-08-03T04:04:07.437Z,96.87
2022-08-03T04:05:07.526Z,96.66
2022-08-03T04:06:07.425Z,97.27
2022-08-03T04:07:07.409Z,97.27
2022-08-03T04:08:07.428Z,97.38
2022-08-03T04:09:07.386Z,97.58
2022-08-03T04:10:14.205Z,97.58
2022-08-03T04:11:07.366Z,97.38
2022-08-03T04:12:10.362Z,97.58
2022-08-03T04:13:07.358Z,97.07
2022-08-03T04:14:07.380Z,96.77
2022-08-03T04:15:07.335Z,96.97
2022-08-03T04:16:07.348Z,96.77
2022-08-03T04:17:07.300Z,96.56
2022-08-03T04:18:07.297Z,96.66
2022-08-03T04:19:07.280Z,97.17
2022-08-03T04:20:07.297Z,96.97
2022-08-03T04:21:07.258Z,96.77
2022-08-03T04:22:07.253Z,96.56
2022-08-03T04:23:14.235Z,96.77
2022-08-03T04:24:07.230Z,97.02
2022-08-03T04:25:07.219Z,97.07
2022-08-03T04:26:07.233Z,96.82
2022-08-03T04:27:10.196Z,96.66
2022-08-03T04:28:28.358Z,96.66
2022-08-03T04:29:08.176Z,96.51
2022-08-03T04:30:07.162Z,96.51
2022-08-03T04:31:07.184Z,96.72
2022-08-03T04:32:07.143Z,96.92
2022-08-03T04:33:07.133Z,96.62
2022-08-03T04:34:07.126Z,96.51
2022-08-03T04:35:07.117Z,96.72
2022-08-03T04:36:07.104Z,96.92
2022-08-03T04:37:07.094Z,96.92
2022-08-03T04:38:07.076Z,96.82
2022-08-03T04:39:07.077Z,96.72
2022-08-03T04:40:07.056Z,96.62
2022-08-03T04:41:07.055Z,96.51
2022-08-03T04:42:10.064Z,96.72
2022-08-03T04:43:07.059Z,96.72
2022-08-03T04:44:07.014Z,96.62
2022-08-03T04:45:07.005Z,96.82
2022-08-03T04:46:06.997Z,96.62
2022-08-03T04:47:07.025Z,96.92
2022-08-03T04:48:06.968Z,97.23
2022-08-03T04:49:07.014Z,96.92
2022-08-03T04:50:11.887Z,96.92
2022-08-03T04:51:06.948Z,97.23
2022-08-03T04:52:06.928Z,97.23
2022-08-03T04:53:06.916Z,97.23
2022-08-03T04:54:06.930Z,97.23
2022-08-03T04:55:06.899Z,97.33
2022-08-03T04:56:06.879Z,97.23
2022-08-03T04:57:09.880Z,97.53
2022-08-03T04:58:06.880Z,97.73
2022-08-03T04:59:06.885Z,97.94
2022-08-03T05:00:06.859Z,98.03
2022-08-03T05:01:06.835Z,98.14
2022-08-03T05:02:06.901Z,98.14
2022-08-03T05:03:20.058Z,98.24
2022-08-03T05:04:07.815Z,98.34
2022-08-03T05:05:06.804Z,98.34
2022-08-03T05:06:09.858Z,98.54
2022-08-03T05:07:12.508Z,98.34
2022-08-03T05:08:06.781Z,98.34
2022-08-03T05:09:06.777Z,98.54
2022-08-03T05:10:14.777Z,98.24
2022-08-03T05:11:06.786Z,98.34
2022-08-03T05:12:09.754Z,98.74
2022-08-03T05:13:06.732Z,98.74
2022-08-03T05:14:06.728Z,98.54
2022-08-03T05:15:06.694Z,98.24
2022-08-03T05:16:06.676Z,98.44
2022-08-03T05:17:06.666Z,98.65
2022-08-03T05:18:09.572Z,98.65
2022-08-03T05:19:06.690Z,98.44
2022-08-03T05:20:06.682Z,98.85
2022-08-03T05:21:06.630Z,99.15
2022-08-03T05:22:06.668Z,98.74
2022-08-03T05:23:06.610Z,98.95
2022-08-03T05:24:06.600Z,99.61
2022-08-03T05:25:06.594Z,99.99
2022-08-03T05:26:07.570Z,99.99
2022-08-03T05:27:09.592Z,99.99
2022-08-03T05:28:06.559Z,99.91
2022-08-03T05:29:06.542Z,99.51
2022-08-03T05:30:30.648Z,99.10
2022-08-03T05:31:07.523Z,99.10
2022-08-03T05:32:08.393Z,99.01
2022-08-03T05:33:06.503Z,99.21
2022-08-03T05:34:06.492Z,99.21
2022-08-03T05:35:56.097Z,99.36
2022-08-03T05:36:07.472Z,99.77
2022-08-03T05:37:06.464Z,99.87
2022-08-03T05:38:06.474Z,99.99
2022-08-03T05:39:06.474Z,99.99
2022-08-03T05:40:06.422Z,99.99
2022-08-03T05:41:21.625Z,99.66
2022-08-03T05:42:10.429Z,99.16
2022-08-03T05:43:06.417Z,99.11
2022-08-03T05:44:06.386Z,99.41
2022-08-03T05:45:06.374Z,99.52
2022-08-03T05:46:12.845Z,99.62
2022-08-03T05:47:06.371Z,99.41
2022-08-03T05:48:06.336Z,99.72
2022-08-03T05:49:06.360Z,99.11
2022-08-03T05:50:06.326Z,99.07
2022-08-03T05:51:06.309Z,99.57
2022-08-03T05:52:21.326Z,99.98
2022-08-03T05:53:06.298Z,99.98
2022-08-03T05:54:06.278Z,99.98
2022-08-03T05:55:06.260Z,99.16
2022-08-03T05:56:14.698Z,99.27
2022-08-03T05:57:09.268Z,99.37
2022-08-03T05:58:06.250Z,99.73
2022-08-03T05:59:28.669Z,99.52
2022-08-03T06:00:07.211Z,99.02
2022-08-03T06:01:06.227Z,98.71
2022-08-03T06:02:06.250Z,99.02
2022-08-03T06:03:06.182Z,99.22
2022-08-03T06:04:06.191Z,99.42
2022-08-03T06:05:06.161Z,99.99
2022-08-03T06:06:06.156Z,99.99
2022-08-03T06:07:06.182Z,99.88
2022-08-03T06:08:06.132Z,99.99
2022-08-03T06:09:06.117Z,99.99
2022-08-03T06:10:35.573Z,99.99
2022-08-03T06:11:07.096Z,99.99
2022-08-03T06:12:13.735Z,99.99
2022-08-03T06:13:06.098Z,99.99
2022-08-03T06:14:06.098Z,99.99
2022-08-03T06:15:06.066Z,99.99
2022-08-03T06:16:06.051Z,99.99
2022-08-03T06:17:06.024Z,99.99
2022-08-03T06:18:06.017Z,99.99
2022-08-03T06:19:06.058Z,99.99
2022-08-03T06:20:06.004Z,99.99
2022-08-03T06:21:14.875Z,99.99
2022-08-03T06:22:05.980Z,99.99
2022-08-03T06:23:05.972Z,99.99
2022-08-03T06:24:06.259Z,99.99
2022-08-03T06:25:06.712Z,99.99
2022-08-03T06:26:05.950Z,99.99
2022-08-03T06:27:08.950Z,99.84
2022-08-03T06:28:07.595Z,99.99
2022-08-03T06:29:06.935Z,99.29
2022-08-03T06:30:05.920Z,99.99
2022-08-03T06:31:06.528Z,99.99
2022-08-03T06:32:05.880Z,99.99
2022-08-03T06:33:05.863Z,99.54
2022-08-03T06:34:33.976Z,98.84
2022-08-03T06:35:06.851Z,98.84
2022-08-03T06:36:05.833Z,97.99
2022-08-03T06:37:05.821Z,98.90
2022-08-03T06:38:05.818Z,98.39
2022-08-03T06:39:05.804Z,97.94
2022-08-03T06:40:05.798Z,97.44
2022-08-03T06:41:05.783Z,96.83
2022-08-03T06:42:09.852Z,95.93
2022-08-03T06:43:09.512Z,94.62
2022-08-03T06:44:05.756Z,93.81
2022-08-03T06:45:05.734Z,92.76
2022-08-03T06:46:05.773Z,93.07
2022-08-03T06:47:05.737Z,92.26
2022-08-03T06:48:05.716Z,93.22
2022-08-03T06:49:05.729Z,93.73
2022-08-03T06:50:17.019Z,94.63
2022-08-03T06:51:05.679Z,91.77
2022-08-03T06:52:07.069Z,90.88
2022-08-03T06:53:05.656Z,86.68
2022-08-03T06:54:06.658Z,84.75
2022-08-03T06:55:05.647Z,81.11
2022-08-03T06:56:05.618Z,78.93
2022-08-03T06:57:08.661Z,77.39
2022-08-03T06:58:05.622Z,76.06
2022-08-03T06:59:05.591Z,76.92
2022-08-03T07:00:09.354Z,77.22
2022-08-03T07:01:05.666Z,75.78
2022-08-03T07:02:05.581Z,75.48
2022-08-03T07:03:05.553Z,74.75
2022-08-03T07:04:05.542Z,74.45
2022-08-03T07:05:05.531Z,75.51
2022-08-03T07:06:05.523Z,74.41
2022-08-03T07:07:05.583Z,74.98
2022-08-03T07:08:05.504Z,73.94
2022-08-03T07:09:05.504Z,73.25
2022-08-03T07:10:05.473Z,72.65
2022-08-03T07:11:05.487Z,71.81
2022-08-03T07:12:08.484Z,69.13
2022-08-03T07:13:05.505Z,70.68
2022-08-03T07:14:05.452Z,70.45
2022-08-03T07:15:05.454Z,70.03
2022-08-03T07:16:06.426Z,68.80
2022-08-03T07:17:11.651Z,68.86
2022-08-03T07:18:05.419Z,68.37
2022-08-03T07:19:05.397Z,68.23
2022-08-03T07:20:05.402Z,69.03
2022-08-03T07:21:05.355Z,67.71
2022-08-03T07:22:05.461Z,65.12
2022-08-03T07:23:05.371Z,62.94
2022-08-03T07:24:06.328Z,64.30
2022-08-03T07:25:05.328Z,65.36
2022-08-03T07:26:05.321Z,62.88
2022-08-03T07:27:08.341Z,62.88
2022-08-03T07:28:05.324Z,63.18
2022-08-03T07:29:11.470Z,63.21
2022-08-03T07:30:05.273Z,63.70
2022-08-03T07:31:05.257Z,65.26
2022-08-03T07:32:05.244Z,64.47
2022-08-03T07:33:05.233Z,63.84
2022-08-03T07:34:05.271Z,64.01
2022-08-03T07:35:08.785Z,63.48
2022-08-03T07:36:06.216Z,62.79
2022-08-03T07:38:05.214Z,62.88
2022-08-03T07:39:16.020Z,64.17
2022-08-03T07:40:05.154Z,63.68
2022-08-03T07:41:05.161Z,63.35
2022-08-03T07:42:08.171Z,60.28
2022-08-03T07:43:05.143Z,61.18
2022-08-03T07:44:05.158Z,61.77
2022-08-03T07:45:05.117Z,61.18
2022-08-03T07:46:05.098Z,60.21
2022-08-03T07:47:05.095Z,60.31
2022-08-03T07:48:10.124Z,61.80
2022-08-03T07:49:05.118Z,62.66
2022-08-03T07:50:05.048Z,59.72
2022-08-03T07:51:05.048Z,59.69
2022-08-03T07:52:05.129Z,60.38
2022-08-03T07:53:05.017Z,60.35
2022-08-03T07:54:05.011Z,61.96
2022-08-03T07:55:05.011Z,60.28
2022-08-03T07:56:05.754Z,62.43
2022-08-03T07:57:08.010Z,61.05
2022-08-03T07:58:04.997Z,61.11
2022-08-03T07:59:04.977Z,60.69
2022-08-03T08:00:04.956Z,60.66
2022-08-03T08:01:04.938Z,57.70
2022-08-03T08:02:04.923Z,58.06
2022-08-03T08:03:04.912Z,59.34
2022-08-03T08:04:04.924Z,57.15
2022-08-03T08:05:05.932Z,55.07
2022-08-03T08:06:04.884Z,56.73
2022-08-03T08:07:04.875Z,57.19
2022-08-03T08:08:04.864Z,56.48
2022-08-03T08:09:05.266Z,56.35
2022-08-03T08:10:04.843Z,53.88
2022-08-03T08:11:04.837Z,53.39
2022-08-03T08:12:15.310Z,53.99
2022-08-03T08:13:04.831Z,55.46
2022-08-03T08:14:04.826Z,55.04
2022-08-03T08:15:04.798Z,55.14
2022-08-03T08:16:04.776Z,55.53
2022-08-03T08:17:07.401Z,54.16
2022-08-03T08:18:04.761Z,54.28
2022-08-03T08:19:04.738Z,55.36
2022-08-03T08:20:04.731Z,55.56
2022-08-03T08:21:04.747Z,54.74
2022-08-03T08:22:05.741Z,55.43
2022-08-03T08:23:09.650Z,53.74
2022-08-03T08:24:10.767Z,54.10
2022-08-03T08:25:04.681Z,53.70
2022-08-03T08:26:04.676Z,52.72
2022-08-03T08:27:07.667Z,52.14
2022-08-03T08:28:30.318Z,54.60
2022-08-03T08:29:05.666Z,54.49
2022-08-03T08:30:10.925Z,53.29
2022-08-03T08:31:04.627Z,52.77
2022-08-03T08:32:04.714Z,51.00
2022-08-03T08:33:04.608Z,51.62
2022-08-03T08:34:04.984Z,52.08
2022-08-03T08:35:04.578Z,53.92
2022-08-03T08:36:04.578Z,53.53
2022-08-03T08:37:05.668Z,51.47
2022-08-03T08:38:05.722Z,52.15
2022-08-03T08:39:04.549Z,52.45
2022-08-03T08:40:04.526Z,51.47
2022-08-03T08:41:04.519Z,50.02
2022-08-03T08:42:07.499Z,52.97
2022-08-03T08:43:04.508Z,55.55
2022-08-03T08:44:04.498Z,53.98
2022-08-03T08:45:04.484Z,55.16
2022-08-03T08:46:04.470Z,53.88
2022-08-03T08:47:04.460Z,53.58
2022-08-03T08:48:08.077Z,54.37
2022-08-03T08:49:05.263Z,52.82
2022-08-03T08:50:10.247Z,53.74
2022-08-03T08:51:05.439Z,55.51
2022-08-03T08:52:04.449Z,54.16
2022-08-03T08:53:05.415Z,54.38
2022-08-03T08:54:04.385Z,54.38
2022-08-03T08:55:04.373Z,54.68
2022-08-03T08:56:04.365Z,55.90
2022-08-03T08:57:26.610Z,56.20
2022-08-03T08:58:05.363Z,54.43
2022-08-03T08:59:04.326Z,54.39
2022-08-03T09:00:04.331Z,54.00
2022-08-03T09:01:04.373Z,51.42
2022-08-03T09:02:04.537Z,53.16
2022-08-03T09:03:04.305Z,53.63
2022-08-03T09:04:04.325Z,53.02
2022-08-03T09:05:07.535Z,52.23
2022-08-03T09:06:04.265Z,50.54
2022-08-03T09:07:19.669Z,50.93
2022-08-03T09:08:05.239Z,51.59
2022-08-03T09:09:04.227Z,49.33
2022-08-03T09:10:11.279Z,48.74
2022-08-03T09:12:35.349Z,49.92
2022-08-03T09:13:05.201Z,50.12
2022-08-03T09:14:04.173Z,51.00
2022-08-03T09:15:16.592Z,50.59
2022-08-03T09:16:04.153Z,48.52
2022-08-03T09:17:04.185Z,49.31
2022-08-03T09:18:05.129Z,50.98
2022-08-03T09:19:04.125Z,49.80
2022-08-03T09:20:04.116Z,49.99
2022-08-03T09:21:24.277Z,50.49
2022-08-03T09:22:05.087Z,50.29
2022-08-03T09:23:19.084Z,50.59
2022-08-03T09:24:07.090Z,50.85
2022-08-03T09:25:26.529Z,50.66
2022-08-03T09:26:05.079Z,53.20
2022-08-03T09:27:07.046Z,49.09
2022-08-03T09:28:04.052Z,47.45
2022-08-03T09:29:08.162Z,48.23
2022-08-03T09:30:04.008Z,48.03
2022-08-03T09:31:04.062Z,46.05
2022-08-03T09:32:04.000Z,47.81
2022-08-03T09:33:03.988Z,47.91
2022-08-03T09:34:03.981Z,46.64
2022-08-03T09:35:03.960Z,46.15
2022-08-03T09:36:03.951Z,46.64
2022-08-03T09:37:03.945Z,49.16
2022-08-03T09:38:12.457Z,49.16
2022-08-03T09:39:03.927Z,48.09
2022-08-03T09:40:03.940Z,50.15
2022-08-03T09:41:03.905Z,52.42
2022-08-03T09:42:06.892Z,49.77
2022-08-03T09:43:03.898Z,53.80
2022-08-03T09:44:03.875Z,51.93
2022-08-03T09:45:03.876Z,47.81
2022-08-03T09:46:03.847Z,47.91
2022-08-03T09:47:03.845Z,48.52
2022-08-03T09:48:03.826Z,50.17
2022-08-03T09:49:03.849Z,50.37
2022-08-03T09:50:03.852Z,48.87
2022-08-03T09:51:13.593Z,48.19
2022-08-03T09:52:38.238Z,49.26
2022-08-03T09:53:04.777Z,50.83
2022-08-03T09:54:03.772Z,49.43
2022-08-03T09:55:04.771Z,48.94
2022-08-03T09:56:33.879Z,47.67
2022-08-03T09:57:07.730Z,47.75
2022-08-03T09:58:03.752Z,45.72
2022-08-03T09:59:03.704Z,46.11
2022-08-03T10:00:08.207Z,44.32
2022-08-03T10:01:03.764Z,45.20
2022-08-03T10:02:04.683Z,46.57
2022-08-03T10:03:03.692Z,48.24
2022-08-03T10:04:05.153Z,47.65
2022-08-03T10:05:03.645Z,47.38
2022-08-03T10:06:03.644Z,47.75
2022-08-03T10:07:03.680Z,47.67
2022-08-03T10:08:03.608Z,45.62
2022-08-03T10:09:03.605Z,46.01
2022-08-03T10:10:30.872Z,46.47
2022-08-03T10:11:04.590Z,49.99
2022-08-03T10:12:06.620Z,47.06
2022-08-03T10:13:03.579Z,48.60
2022-08-03T10:14:03.558Z,47.72
2022-08-03T10:15:03.547Z,46.55
2022-08-03T10:16:21.867Z,46.84
2022-08-03T10:17:04.520Z,47.89
2022-08-03T10:18:03.514Z,46.33
2022-08-03T10:19:03.509Z,44.96
2022-08-03T10:20:03.493Z,44.57
2022-08-03T10:21:03.486Z,43.10
2022-08-03T10:22:03.472Z,43.59
2022-08-03T10:23:03.463Z,45.33
2022-08-03T10:24:03.451Z,47.38
2022-08-03T10:25:03.433Z,44.53
2022-08-03T10:26:03.433Z,44.74
2022-08-03T10:27:06.461Z,47.77
2022-08-03T10:28:03.426Z,46.53
2022-08-03T10:29:03.395Z,44.10
2022-08-03T10:30:03.383Z,43.54
2022-08-03T10:31:03.383Z,45.89
2022-08-03T10:32:03.367Z,45.30
2022-08-03T10:33:10.892Z,45.50
2022-08-03T10:34:04.355Z,46.57
2022-08-03T10:35:04.172Z,44.69
2022-08-03T10:36:04.501Z,43.62
2022-08-03T10:37:03.328Z,44.87
2022-08-03T10:38:03.310Z,44.18
2022-08-03T10:39:03.299Z,44.94
2022-08-03T10:40:03.287Z,43.57
2022-08-03T10:41:03.279Z,42.69
2022-08-03T10:42:06.263Z,41.74
2022-08-03T10:43:03.272Z,42.60
2022-08-03T10:44:03.255Z,43.38
2022-08-03T10:45:03.276Z,42.99
2022-08-03T10:46:03.233Z,43.96
2022-08-03T10:47:03.213Z,44.84
2022-08-03T10:48:03.222Z,43.67
2022-08-03T10:49:03.265Z,43.99
2022-08-03T10:50:03.210Z,43.49
2022-08-03T10:51:03.178Z,44.77
2022-08-03T10:52:10.374Z,45.33
2022-08-03T10:53:04.158Z,44.74
2022-08-03T10:54:03.147Z,43.77
2022-08-03T10:55:07.409Z,44.74
2022-08-03T10:56:03.137Z,44.94
2022-08-03T10:57:14.253Z,44.48
2022-08-03T10:58:05.731Z,46.55
2022-08-03T10:59:03.829Z,47.14
2022-08-03T11:00:03.101Z,45.86
2022-08-03T11:01:03.158Z,47.45
2022-08-03T11:02:03.075Z,45.30
2022-08-03T11:03:03.081Z,44.91
2022-08-03T11:04:06.141Z,45.47
2022-08-03T11:05:03.039Z,43.52
2022-08-03T11:06:03.042Z,44.38
2022-08-03T11:07:03.014Z,42.81
2022-08-03T11:08:03.031Z,43.69
2022-08-03T11:09:03.003Z,43.03
2022-08-03T11:10:06.551Z,45.47
2022-08-03T11:11:02.978Z,43.49
2022-08-03T11:12:05.967Z,43.01
2022-08-03T11:13:02.967Z,42.61
2022-08-03T11:14:02.947Z,42.79
2022-08-03T11:15:02.957Z,47.75
2022-08-03T11:16:05.855Z,46.97
2022-08-03T11:17:03.918Z,42.09
2022-08-03T11:18:02.906Z,44.16
2022-08-03T11:19:02.899Z,44.74
2022-08-03T11:20:02.921Z,44.55
2022-08-03T11:21:02.881Z,43.48
2022-08-03T11:22:02.888Z,43.95
2022-08-03T11:23:02.857Z,43.16
2022-08-03T11:24:06.385Z,42.38
2022-08-03T11:25:02.903Z,42.48
2022-08-03T11:26:02.821Z,45.70
2022-08-03T11:27:05.988Z,44.51
2022-08-03T11:28:02.873Z,43.82
2022-08-03T11:29:02.842Z,45.39
2022-08-03T11:30:02.824Z,45.02
2022-08-03T11:31:02.785Z,44.06
2022-08-03T11:32:02.774Z,44.38
2022-08-03T11:33:02.765Z,44.67
2022-08-03T11:34:02.744Z,44.69
2022-08-03T11:35:02.736Z,44.42
2022-08-03T11:36:02.733Z,46.18
2022-08-03T11:37:02.717Z,45.62
2022-08-03T11:38:04.730Z,46.28
2022-08-03T11:39:02.702Z,45.62
2022-08-03T11:40:03.079Z,46.30
2022-08-03T11:41:02.705Z,45.10
2022-08-03T11:42:05.669Z,44.52
2022-08-03T11:43:02.717Z,42.46
2022-08-03T11:44:02.639Z,42.17
2022-08-03T11:45:02.633Z,43.24
2022-08-03T11:46:02.632Z,42.17
2022-08-03T11:47:02.621Z,42.56
2022-08-03T11:48:02.641Z,44.89
2022-08-03T11:49:06.564Z,43.81
2022-08-03T11:50:02.598Z,44.67
2022-08-03T11:51:02.582Z,42.60
2022-08-03T11:52:02.553Z,44.14
2022-08-03T11:53:02.559Z,42.48
2022-08-03T11:54:02.555Z,42.07
2022-08-03T11:55:02.527Z,40.50
2022-08-03T11:56:02.537Z,39.82
2022-08-03T11:57:05.508Z,42.36
2022-08-03T11:59:00.903Z,39.84
2022-08-03T11:59:19.212Z,38.77
2022-08-03T12:00:03.486Z,39.57
2022-08-03T12:01:02.476Z,39.37
2022-08-03T12:02:02.486Z,39.08
2022-08-03T12:03:02.512Z,38.89
2022-08-03T12:04:02.453Z,39.96
2022-08-03T12:05:02.431Z,39.28
2022-08-03T12:06:02.421Z,38.18
2022-08-03T12:07:02.450Z,37.60
2022-08-03T12:08:06.346Z,37.77
2022-08-03T12:09:02.399Z,38.55
2022-08-03T12:10:02.382Z,39.12
2022-08-03T12:11:02.433Z,38.04
2022-08-03T12:12:05.394Z,37.95
2022-08-03T12:13:02.375Z,38.84
2022-08-03T12:14:45.550Z,40.53
2022-08-03T12:15:03.342Z,39.67
2022-08-03T12:16:02.329Z,40.56
2022-08-03T12:17:02.335Z,40.08
2022-08-03T12:18:02.304Z,41.56
2022-08-03T12:19:02.294Z,42.32
2022-08-03T12:20:02.293Z,39.78
2022-08-03T12:21:02.310Z,39.96
2022-08-03T12:22:02.268Z,38.69
2022-08-03T12:23:02.251Z,38.59
2022-08-03T12:24:02.296Z,38.69
2022-08-03T12:25:02.230Z,39.36
2022-08-03T12:26:02.227Z,38.18
2022-08-03T12:27:05.221Z,38.57
2022-08-03T12:28:02.212Z,37.50
2022-08-03T12:29:03.232Z,36.23
2022-08-03T12:30:02.188Z,37.60
2022-08-03T12:31:02.173Z,39.72
2022-08-03T12:32:02.276Z,37.79
2022-08-03T12:33:02.153Z,38.77
2022-08-03T12:34:02.233Z,39.26
2022-08-03T12:35:02.335Z,38.30
2022-08-03T12:36:02.124Z,38.71
2022-08-03T12:37:02.124Z,40.29
2022-08-03T12:38:03.104Z,40.19
2022-08-03T12:39:02.098Z,41.27
2022-08-03T12:40:09.445Z,40.29
2022-08-03T12:41:02.076Z,39.80
2022-08-03T12:42:05.067Z,40.68
2022-08-03T12:43:02.099Z,41.35
2022-08-03T12:44:02.038Z,42.32
2022-08-03T12:45:02.158Z,41.64
2022-08-03T12:46:02.027Z,39.67
2022-08-03T12:47:02.019Z,39.18
2022-08-03T12:48:02.008Z,38.77
2022-08-03T12:49:02.050Z,37.91
2022-08-03T12:50:01.982Z,39.96
2022-08-03T12:51:01.974Z,39.06
2022-08-03T12:52:07.247Z,37.60
2022-08-03T12:53:01.955Z,38.28
2022-08-03T12:54:01.967Z,38.26